Time;durP1;ratioP1;P1;durP2;ratioP2;P2;SDS_P1;SDS_P2;PMS_P1;PMS_P2;Temp;Humidity;BMP_temperature;BMP_pressure;BME280_temperature;BME280_humidity;BME280_pressure;Samples;Min_cycle;Max_cycle;Signal;HPM_P1;HPM_P2
2021/12/13 00:00:11;;;;;;;;;;;10.00;99.90;;;;;;5033356;28;20256;-86
2021/12/13 00:02:45;;;;;;;;;;;10.00;99.90;;;;;;5031486;28;19996;-87
2021/12/13 00:05:23;;;;;;;;;;;9.90;99.90;;;;;;5033034;28;19956;-83
2021/12/13 00:07:54;;;;;;;;;;;9.90;99.90;;;;;;5029269;28;19924;-87
2021/12/13 00:10:21;;;;;;;;;;;9.90;99.90;;;;;;5033749;28;19928;-87
2021/12/13 00:12:48;;;;;;;;;;;9.90;99.90;;;;;;5034692;28;19909;-86
2021/12/13 00:15:18;;;;;;;;;;;9.80;99.90;;;;;;5035191;28;19914;-89
2021/12/13 00:17:45;;;;;;;;;;;9.80;99.90;;;;;;5034724;28;19921;-85
2021/12/13 00:20:13;;;;;;;;;;;9.70;99.90;;;;;;5049604;28;20007;-85
2021/12/13 00:22:44;;;;;;;;;;;9.70;99.90;;;;;;5033851;28;19921;-88
2021/12/13 00:25:13;;;;;;;;;;;9.70;99.90;;;;;;5051492;28;20442;-85
2021/12/13 00:27:41;;;;;;;;;;;9.80;99.90;;;;;;5050893;28;19917;-87
2021/12/13 00:30:16;;;;;;;;;;;9.70;99.90;;;;;;5048086;28;20004;-87
2021/12/13 00:32:47;;;;;;;;;;;9.70;99.90;;;;;;5032420;28;19924;-91
2021/12/13 00:35:24;;;;;;;;;;;9.70;99.90;;;;;;5034059;28;19988;-88
2021/12/13 00:37:54;;;;;;;;;;;9.70;99.90;;;;;;5034559;28;20302;-83
2021/12/13 00:40:28;;;;;;;;;;;9.70;99.90;;;;;;5032509;28;19933;-87
2021/12/13 00:43:12;;;;;;;;;;;9.70;99.90;;;;;;5034027;28;19919;-86
2021/12/13 00:45:40;;;;;;;;;;;9.70;99.90;;;;;;5050494;28;19921;-89
2021/12/13 00:48:06;;;;;;;;;;;9.70;99.90;;;;;;5034551;28;19964;-91
2021/12/13 00:50:37;;;;;;;;;;;9.70;99.90;;;;;;5033614;28;19928;-87
2021/12/13 00:53:03;;;;;;;;;;;9.70;99.90;;;;;;5034599;28;19917;-91
2021/12/13 00:55:30;;;;;;;;;;;9.70;99.90;;;;;;5035558;28;19913;-91
2021/12/13 00:58:10;;;;;;;;;;;9.60;99.90;;;;;;5049037;28;19916;-89
2021/12/13 01:00:36;;;;;;;;;;;9.60;99.90;;;;;;5031714;28;19913;-91
2021/12/13 01:03:09;;;;;;;;;;;9.60;99.90;;;;;;5034546;28;20358;-88
2021/12/13 01:05:44;;;;;;;;;;;9.60;99.90;;;;;;5034293;28;19921;-89
2021/12/13 01:08:12;;;;;;;;;;;9.50;99.90;;;;;;5034442;28;19917;-88
2021/12/13 01:11:06;;;;;;;;;;;9.50;99.90;;;;;;5032681;28;19921;-92
2021/12/13 01:13:38;;;;;;;;;;;9.50;99.90;;;;;;5029539;28;19913;-93
2021/12/13 01:16:33;;;;;;;;;;;9.40;99.90;;;;;;5048750;28;19917;-91
2021/12/13 01:22:02;;;;;;;;;;;9.40;99.90;;;;;;5035105;28;19961;-89
2021/12/13 01:27:14;;;;;;;;;;;9.40;99.90;;;;;;5033387;28;19932;-85
2021/12/13 01:29:40;;;;;;;;;;;9.40;99.90;;;;;;5034356;28;19921;-83
2021/12/13 01:32:07;;;;;;;;;;;9.40;99.90;;;;;;5047811;28;19920;-87
2021/12/13 01:34:35;;;;;;;;;;;9.40;99.90;;;;;;5011803;28;19996;-86
2021/12/13 01:37:10;;;;;;;;;;;9.40;99.90;;;;;;5033089;28;19914;-85
2021/12/13 01:39:41;;;;;;;;;;;9.40;99.90;;;;;;5028391;28;19917;-86
2021/12/13 01:42:20;;;;;;;;;;;9.40;99.90;;;;;;5028482;28;19925;-88
2021/12/13 01:44:48;;;;;;;;;;;9.40;99.90;;;;;;5029137;28;19921;-88
2021/12/13 01:47:18;;;;;;;;;;;9.40;99.90;;;;;;5030526;28;19963;-87
2021/12/13 01:49:45;;;;;;;;;;;9.40;99.90;;;;;;5030312;28;20228;-86
2021/12/13 01:52:22;;;;;;;;;;;9.40;99.90;;;;;;5030857;28;19944;-90
2021/12/13 01:54:48;;;;;;;;;;;9.30;99.90;;;;;;5031624;28;19917;-89
2021/12/13 01:59:51;;;;;;;;;;;9.30;99.90;;;;;;5029913;28;20052;-86
2021/12/13 02:02:31;;;;;;;;;;;9.30;99.90;;;;;;5046124;28;20004;-88
2021/12/13 02:05:04;;;;;;;;;;;9.20;99.90;;;;;;5028939;28;21764;-84
2021/12/13 02:07:36;;;;;;;;;;;9.20;99.90;;;;;;5043903;28;19925;-84
2021/12/13 02:10:03;;;;;;;;;;;9.30;99.90;;;;;;5029361;28;19924;-84
2021/12/13 02:12:30;;;;;;;;;;;9.20;99.90;;;;;;5028631;28;19917;-85
2021/12/13 02:17:43;;;;;;;;;;;9.20;99.90;;;;;;5025694;28;19924;-82
2021/12/13 02:20:12;;;;;;;;;;;9.20;99.90;;;;;;5029187;28;20228;-85
2021/12/13 02:22:39;;;;;;;;;;;9.20;99.90;;;;;;5044716;28;21086;-85
2021/12/13 02:25:08;;;;;;;;;;;9.30;99.90;;;;;;5026974;28;20237;-84
2021/12/13 02:27:35;;;;;;;;;;;9.30;99.90;;;;;;5027338;28;19926;-85
2021/12/13 02:30:04;;;;;;;;;;;9.20;99.90;;;;;;5027124;28;19921;-85
2021/12/13 02:32:35;;;;;;;;;;;9.30;99.90;;;;;;5025353;28;21509;-85
2021/12/13 02:35:02;;;;;;;;;;;9.30;99.90;;;;;;5026497;28;19921;-84
2021/12/13 02:37:28;;;;;;;;;;;9.30;99.90;;;;;;5042834;28;20260;-86
2021/12/13 02:39:56;;;;;;;;;;;9.20;99.90;;;;;;5029865;28;19913;-84
2021/12/13 02:42:23;;;;;;;;;;;9.20;99.90;;;;;;5023964;28;19921;-84
2021/12/13 02:44:51;;;;;;;;;;;9.20;99.90;;;;;;5026990;28;19928;-84
2021/12/13 02:47:16;;;;;;;;;;;9.20;99.90;;;;;;5041274;28;20012;-84
2021/12/13 02:49:42;;;;;;;;;;;9.20;99.90;;;;;;5024866;28;20032;-85
2021/12/13 02:52:10;;;;;;;;;;;9.20;99.90;;;;;;5040990;28;20434;-82
2021/12/13 02:54:38;;;;;;;;;;;9.20;99.90;;;;;;5026071;28;19962;-81
2021/12/13 02:57:08;;;;;;;;;;;9.20;99.90;;;;;;5010442;28;19928;-84
2021/12/13 02:59:36;;;;;;;;;;;9.20;99.90;;;;;;5023497;28;19917;-84
2021/12/13 03:02:07;;;;;;;;;;;9.10;99.90;;;;;;5042361;28;20302;-83
2021/12/13 03:04:33;;;;;;;;;;;9.10;99.90;;;;;;5040046;28;19928;-83
2021/12/13 03:07:01;;;;;;;;;;;9.10;99.90;;;;;;5028595;28;19925;-84
2021/12/13 03:09:28;;;;;;;;;;;9.10;99.90;;;;;;5021692;28;19917;-84
2021/12/13 03:11:54;;;;;;;;;;;9.10;99.90;;;;;;5022074;28;20308;-84
2021/12/13 03:14:31;;;;;;;;;;;9.10;99.90;;;;;;5024819;28;20004;-83
2021/12/13 03:17:13;;;;;;;;;;;9.00;99.90;;;;;;5042673;28;19949;-86
2021/12/13 03:19:41;;;;;;;;;;;9.00;99.90;;;;;;5045332;28;19921;-85
2021/12/13 03:22:13;;;;;;;;;;;9.10;99.90;;;;;;5030001;28;19940;-82
2021/12/13 03:24:48;;;;;;;;;;;9.10;99.90;;;;;;5028715;28;19915;-85
2021/12/13 03:27:18;;;;;;;;;;;9.10;99.90;;;;;;5045008;28;20008;-84
2021/12/13 03:29:53;;;;;;;;;;;9.10;99.90;;;;;;5026713;28;19917;-83
2021/12/13 03:32:20;;;;;;;;;;;9.10;99.90;;;;;;5029818;28;19925;-84
2021/12/13 03:35:01;;;;;;;;;;;9.10;99.90;;;;;;5028677;28;19916;-84
2021/12/13 03:37:27;;;;;;;;;;;9.10;99.90;;;;;;5028952;28;19925;-83
2021/12/13 03:39:59;;;;;;;;;;;9.20;99.90;;;;;;5029176;28;19921;-82
2021/12/13 03:42:30;;;;;;;;;;;9.10;99.90;;;;;;5028925;28;19940;-83
2021/12/13 03:44:57;;;;;;;;;;;9.10;99.90;;;;;;5026920;28;20265;-83
2021/12/13 03:47:25;;;;;;;;;;;9.10;99.90;;;;;;5030765;28;19921;-83
2021/12/13 03:49:53;;;;;;;;;;;9.10;99.90;;;;;;5030334;28;19926;-83
2021/12/13 03:52:21;;;;;;;;;;;9.10;99.90;;;;;;5047505;28;19963;-83
2021/12/13 03:54:47;;;;;;;;;;;9.10;99.90;;;;;;5047638;28;19913;-82
2021/12/13 03:57:15;;;;;;;;;;;9.10;99.90;;;;;;5049287;28;19917;-82
2021/12/13 03:59:41;;;;;;;;;;;9.10;99.90;;;;;;5031879;28;22013;-81
2021/12/13 04:02:10;;;;;;;;;;;9.10;99.90;;;;;;5033408;28;20315;-84
2021/12/13 04:04:35;;;;;;;;;;;9.10;99.90;;;;;;5032342;28;20012;-82
2021/12/13 04:07:10;;;;;;;;;;;9.10;99.90;;;;;;5032926;28;20011;-84
2021/12/13 04:09:36;;;;;;;;;;;9.10;99.90;;;;;;5032718;28;19964;-85
2021/12/13 04:12:03;;;;;;;;;;;9.10;99.90;;;;;;5049240;28;20304;-84
2021/12/13 04:14:33;;;;;;;;;;;9.10;99.90;;;;;;5031252;28;19992;-85
2021/12/13 04:17:05;;;;;;;;;;;9.10;99.90;;;;;;5032917;28;20003;-84
2021/12/13 04:19:51;;;;;;;;;;;9.10;99.90;;;;;;5032840;28;19917;-84
2021/12/13 04:22:18;;;;;;;;;;;9.10;99.90;;;;;;5020888;28;19948;-84
2021/12/13 04:24:53;;;;;;;;;;;9.10;99.90;;;;;;5031555;28;19963;-84
2021/12/13 04:27:27;;;;;;;;;;;9.10;99.90;;;;;;5032231;28;19921;-84
2021/12/13 04:29:56;;;;;;;;;;;9.10;99.90;;;;;;5032809;28;20362;-84
2021/12/13 04:32:22;;;;;;;;;;;9.10;99.90;;;;;;5030304;28;19994;-84
2021/12/13 04:34:50;;;;;;;;;;;9.10;99.90;;;;;;5031831;28;20305;-83
2021/12/13 04:37:19;;;;;;;;;;;9.10;99.90;;;;;;5032500;28;19925;-84
2021/12/13 04:39:48;;;;;;;;;;;9.10;99.90;;;;;;5046561;28;19917;-85
2021/12/13 04:42:15;;;;;;;;;;;9.10;99.90;;;;;;5043164;28;19925;-83
2021/12/13 04:44:50;;;;;;;;;;;9.00;99.90;;;;;;5028688;28;19913;-83
2021/12/13 04:47:21;;;;;;;;;;;9.00;99.90;;;;;;5013743;28;20494;-83
2021/12/13 04:49:51;;;;;;;;;;;9.00;99.90;;;;;;5023684;28;19945;-83
2021/12/13 04:52:18;;;;;;;;;;;9.00;99.90;;;;;;5028080;28;19913;-83
2021/12/13 04:54:47;;;;;;;;;;;9.00;99.90;;;;;;5047604;28;19917;-84
2021/12/13 04:57:13;;;;;;;;;;;9.00;99.90;;;;;;5045681;28;20016;-82
2021/12/13 04:59:38;;;;;;;;;;;9.00;99.90;;;;;;5031747;28;20005;-85
2021/12/13 05:02:07;;;;;;;;;;;9.00;99.90;;;;;;5031742;28;20367;-82
2021/12/13 05:04:33;;;;;;;;;;;9.00;99.90;;;;;;5030377;28;20004;-84
2021/12/13 05:07:03;;;;;;;;;;;9.00;99.90;;;;;;5033151;28;19999;-85
2021/12/13 05:09:29;;;;;;;;;;;9.00;99.90;;;;;;5032065;28;20000;-83
2021/12/13 05:11:56;;;;;;;;;;;9.00;99.90;;;;;;5027883;28;20312;-83
2021/12/13 05:14:31;;;;;;;;;;;8.90;99.90;;;;;;5047151;28;19917;-85
2021/12/13 05:16:58;;;;;;;;;;;8.90;99.90;;;;;;5030430;28;19913;-84
2021/12/13 05:19:26;;;;;;;;;;;8.90;99.90;;;;;;5027613;28;19921;-84
2021/12/13 05:21:52;;;;;;;;;;;8.90;99.90;;;;;;5030370;28;19917;-85
2021/12/13 05:24:23;;;;;;;;;;;9.00;99.90;;;;;;5032169;28;19923;-84
2021/12/13 05:26:52;;;;;;;;;;;9.00;99.90;;;;;;5032041;28;19983;-85
2021/12/13 05:29:27;;;;;;;;;;;9.00;99.90;;;;;;5023146;28;19939;-85
2021/12/13 05:31:55;;;;;;;;;;;9.00;99.90;;;;;;5030059;28;19917;-84
2021/12/13 05:34:21;;;;;;;;;;;9.00;99.90;;;;;;5031615;28;20379;-85
2021/12/13 05:36:55;;;;;;;;;;;9.00;99.90;;;;;;5030318;28;20004;-83
2021/12/13 05:39:21;;;;;;;;;;;9.00;99.90;;;;;;5031389;28;19921;-83
2021/12/13 05:41:52;;;;;;;;;;;9.00;99.90;;;;;;5044101;28;19925;-84
2021/12/13 05:44:27;;;;;;;;;;;9.00;99.90;;;;;;5045672;28;20323;-85
2021/12/13 05:46:53;;;;;;;;;;;9.00;99.90;;;;;;5048350;28;20364;-84
2021/12/13 05:49:24;;;;;;;;;;;9.00;99.90;;;;;;5045545;28;19913;-83
2021/12/13 05:51:53;;;;;;;;;;;9.10;99.90;;;;;;5029478;28;19924;-82
2021/12/13 05:54:21;;;;;;;;;;;9.00;99.90;;;;;;5046351;28;19913;-83
2021/12/13 05:56:50;;;;;;;;;;;9.00;99.90;;;;;;5031049;28;20054;-87
2021/12/13 05:59:15;;;;;;;;;;;9.00;99.90;;;;;;5030889;28;19924;-83
2021/12/13 06:02:00;;;;;;;;;;;9.00;99.90;;;;;;5029270;28;20466;-83
2021/12/13 06:04:32;;;;;;;;;;;9.00;99.90;;;;;;5028108;28;19921;-82
2021/12/13 06:06:57;;;;;;;;;;;9.00;99.90;;;;;;5029271;28;19921;-84
2021/12/13 06:09:42;;;;;;;;;;;9.00;99.90;;;;;;5029689;28;19917;-84
2021/12/13 06:12:10;;;;;;;;;;;9.00;99.90;;;;;;5028546;28;19920;-85
2021/12/13 06:14:36;;;;;;;;;;;9.00;99.90;;;;;;5046140;28;20017;-85
2021/12/13 06:17:03;;;;;;;;;;;9.00;99.90;;;;;;5031399;28;20009;-83
2021/12/13 06:19:34;;;;;;;;;;;9.00;99.90;;;;;;5032367;28;20283;-85
2021/12/13 06:22:09;;;;;;;;;;;9.00;99.90;;;;;;5030392;28;19928;-82
2021/12/13 06:24:46;;;;;;;;;;;9.00;99.90;;;;;;5027867;28;19951;-85
2021/12/13 06:27:15;;;;;;;;;;;9.00;99.90;;;;;;5026814;28;19964;-85
2021/12/13 06:29:52;;;;;;;;;;;9.00;99.90;;;;;;5044231;28;19913;-83
2021/12/13 06:32:26;;;;;;;;;;;9.00;99.90;;;;;;5032609;28;20197;-84
2021/12/13 06:34:52;;;;;;;;;;;9.00;99.90;;;;;;5028148;28;19917;-86
2021/12/13 06:37:29;;;;;;;;;;;9.00;99.90;;;;;;5043699;28;19924;-84
2021/12/13 06:40:26;;;;;;;;;;;9.00;99.90;;;;;;5044655;28;19921;-84
2021/12/13 06:42:52;;;;;;;;;;;9.00;99.90;;;;;;5028194;28;21352;-85
2021/12/13 06:45:44;;;;;;;;;;;9.00;99.90;;;;;;5029243;28;19921;-83
2021/12/13 06:48:10;;;;;;;;;;;9.00;99.90;;;;;;5026519;28;19932;-84
2021/12/13 06:50:37;;;;;;;;;;;9.00;99.90;;;;;;5043583;28;19921;-83
2021/12/13 06:53:14;;;;;;;;;;;8.90;99.90;;;;;;5044794;28;19928;-85
2021/12/13 06:55:40;;;;;;;;;;;8.90;99.90;;;;;;5046330;28;19917;-85
2021/12/13 06:58:17;;;;;;;;;;;8.90;99.90;;;;;;5031498;28;19917;-84
2021/12/13 07:00:44;;;;;;;;;;;8.90;99.90;;;;;;5030380;28;19931;-85
2021/12/13 07:03:11;;;;;;;;;;;8.90;99.90;;;;;;5028856;28;19939;-84
2021/12/13 07:05:41;;;;;;;;;;;8.90;99.90;;;;;;5029360;28;19918;-85
2021/12/13 07:08:31;;;;;;;;;;;8.90;99.90;;;;;;5030140;28;20307;-85
2021/12/13 07:10:59;;;;;;;;;;;8.80;99.90;;;;;;5027451;28;19963;-84
2021/12/13 07:13:30;;;;;;;;;;;8.90;99.90;;;;;;5029694;28;20003;-83
2021/12/13 07:16:16;;;;;;;;;;;8.80;99.90;;;;;;5029490;28;19991;-84
2021/12/13 07:18:48;;;;;;;;;;;8.80;99.90;;;;;;5045589;28;20005;-85
2021/12/13 07:21:20;;;;;;;;;;;8.90;99.90;;;;;;5032340;28;19917;-85
2021/12/13 07:23:53;;;;;;;;;;;8.80;99.90;;;;;;5034212;28;19920;-84
2021/12/13 07:26:49;;;;;;;;;;;8.90;99.90;;;;;;5033910;28;20308;-84
2021/12/13 07:29:17;;;;;;;;;;;8.80;99.90;;;;;;4934746;28;19914;-85
2021/12/13 07:31:45;;;;;;;;;;;8.80;99.90;;;;;;4927978;28;20463;-84
2021/12/13 07:34:13;;;;;;;;;;;8.80;99.90;;;;;;4954844;28;19914;-85
2021/12/13 07:36:39;;;;;;;;;;;8.80;99.90;;;;;;4957211;28;19933;-86
2021/12/13 07:39:28;;;;;;;;;;;8.80;99.90;;;;;;4954775;28;19919;-85
2021/12/13 07:41:56;;;;;;;;;;;8.80;99.90;;;;;;4948825;28;19930;-84
2021/12/13 07:44:43;;;;;;;;;;;8.80;99.90;;;;;;4955276;28;20244;-85
2021/12/13 07:47:20;;;;;;;;;;;8.80;99.90;;;;;;4946644;28;19923;-83
2021/12/13 07:49:47;;;;;;;;;;;8.90;99.90;;;;;;4943981;28;20431;-85
2021/12/13 07:52:33;;;;;;;;;;;8.80;99.90;;;;;;4960566;28;19973;-85
2021/12/13 07:55:13;;;;;;;;;;;8.80;99.90;;;;;;4960259;28;20377;-84
2021/12/13 07:57:39;;;;;;;;;;;8.90;99.90;;;;;;4942278;28;19949;-85
2021/12/13 08:00:13;;;;;;;;;;;8.90;99.90;;;;;;4958751;28;21093;-83
2021/12/13 08:02:39;;;;;;;;;;;8.90;99.90;;;;;;4960118;28;19918;-84
2021/12/13 08:05:08;;;;;;;;;;;8.90;99.90;;;;;;4964613;28;19917;-83
2021/12/13 08:07:42;;;;;;;;;;;8.90;99.90;;;;;;5043734;28;19920;-85
2021/12/13 08:10:34;;;;;;;;;;;8.90;99.90;;;;;;5031378;28;19925;-86
2021/12/13 08:13:09;;;;;;;;;;;8.90;99.90;;;;;;5033203;28;19920;-86
2021/12/13 08:15:37;;;;;;;;;;;8.90;99.90;;;;;;5030827;28;20198;-86
2021/12/13 08:18:05;;;;;;;;;;;8.90;99.90;;;;;;5032730;28;19917;-84
2021/12/13 08:20:43;;;;;;;;;;;8.90;99.90;;;;;;5045579;28;20215;-84
2021/12/13 08:23:19;;;;;;;;;;;9.00;99.90;;;;;;5042023;28;20324;-85
2021/12/13 08:25:48;;;;;;;;;;;9.00;99.90;;;;;;5032216;28;19921;-84
2021/12/13 08:28:15;;;;;;;;;;;9.00;99.90;;;;;;5032708;28;19931;-84
2021/12/13 08:30:46;;;;;;;;;;;9.00;99.90;;;;;;5046824;28;19924;-84
2021/12/13 08:33:14;;;;;;;;;;;9.00;99.90;;;;;;5027211;28;19920;-84
2021/12/13 08:35:54;;;;;;;;;;;9.10;99.90;;;;;;5041504;28;19921;-83
2021/12/13 08:38:28;;;;;;;;;;;9.10;99.90;;;;;;5035803;28;19921;-82
2021/12/13 08:40:54;;;;;;;;;;;9.10;99.90;;;;;;5030500;28;19921;-83
2021/12/13 08:43:39;;;;;;;;;;;9.10;99.90;;;;;;5044666;28;20678;-84
2021/12/13 08:46:05;;;;;;;;;;;9.10;99.90;;;;;;5042598;28;20318;-82
2021/12/13 08:48:41;;;;;;;;;;;9.10;99.90;;;;;;5048013;28;19928;-82
2021/12/13 08:51:06;;;;;;;;;;;9.10;99.90;;;;;;5031300;28;19924;-83
2021/12/13 08:53:35;;;;;;;;;;;9.10;99.90;;;;;;5032616;28;19913;-82
2021/12/13 08:56:05;;;;;;;;;;;9.10;99.90;;;;;;5047313;28;19917;-83
2021/12/13 08:58:31;;;;;;;;;;;9.10;99.90;;;;;;5032091;28;19913;-84
2021/12/13 09:01:05;;;;;;;;;;;9.20;99.90;;;;;;5029589;28;20405;-85
2021/12/13 09:03:37;;;;;;;;;;;9.20;99.90;;;;;;5031913;28;19957;-83
2021/12/13 09:06:25;;;;;;;;;;;9.10;99.90;;;;;;5030408;28;19913;-83
2021/12/13 09:09:00;;;;;;;;;;;9.20;99.90;;;;;;5024469;28;19917;-83
2021/12/13 09:11:46;;;;;;;;;;;9.20;99.90;;;;;;5033130;28;19996;-83
2021/12/13 09:14:18;;;;;;;;;;;9.20;99.90;;;;;;5031537;28;19917;-83
2021/12/13 09:16:56;;;;;;;;;;;9.20;99.90;;;;;;5030530;28;19917;-84
2021/12/13 09:19:26;;;;;;;;;;;9.20;99.90;;;;;;5031612;28;19917;-83
2021/12/13 09:21:57;;;;;;;;;;;9.20;99.90;;;;;;5031379;28;19925;-84
2021/12/13 09:24:34;;;;;;;;;;;9.20;99.90;;;;;;5047045;28;19932;-86
2021/12/13 09:27:12;;;;;;;;;;;9.20;99.90;;;;;;5030930;28;20427;-84
2021/12/13 09:29:48;;;;;;;;;;;9.20;99.90;;;;;;5030463;28;20134;-84
2021/12/13 09:32:14;;;;;;;;;;;9.20;99.90;;;;;;5030723;28;19939;-83
2021/12/13 09:34:40;;;;;;;;;;;9.30;99.90;;;;;;5027470;28;19921;-83
2021/12/13 09:37:05;;;;;;;;;;;9.30;99.90;;;;;;5045812;28;19914;-82
2021/12/13 09:39:31;;;;;;;;;;;9.40;99.90;;;;;;5030783;28;19913;-84
2021/12/13 09:42:04;;;;;;;;;;;9.40;99.90;;;;;;5029695;28;19925;-84
2021/12/13 09:44:33;;;;;;;;;;;9.40;99.90;;;;;;5030490;28;19917;-82
2021/12/13 09:47:09;;;;;;;;;;;9.40;99.90;;;;;;5030247;28;19925;-84
2021/12/13 09:49:38;;;;;;;;;;;9.40;99.90;;;;;;5044459;28;21152;-84
2021/12/13 09:52:09;;;;;;;;;;;9.40;99.90;;;;;;5030677;28;19909;-82
2021/12/13 09:54:42;;;;;;;;;;;9.40;99.90;;;;;;5030364;28;19917;-84
2021/12/13 09:57:12;;;;;;;;;;;9.40;99.90;;;;;;5032081;28;19928;-84
2021/12/13 09:59:40;;;;;;;;;;;9.40;99.90;;;;;;5031936;28;19918;-84
2021/12/13 10:02:08;;;;;;;;;;;9.40;99.90;;;;;;5032884;28;19921;-84
2021/12/13 10:04:36;;;;;;;;;;;9.50;99.90;;;;;;5033176;28;19921;-83
2021/12/13 10:07:14;;;;;;;;;;;9.50;99.90;;;;;;5047298;28;19917;-81
2021/12/13 10:09:42;;;;;;;;;;;9.50;99.90;;;;;;5029564;28;19912;-83
2021/12/13 10:12:10;;;;;;;;;;;9.50;99.90;;;;;;5047690;28;19917;-83
2021/12/13 10:14:47;;;;;;;;;;;9.60;99.90;;;;;;5044437;28;19917;-82
2021/12/13 10:17:15;;;;;;;;;;;9.50;99.90;;;;;;5031550;28;20315;-83
2021/12/13 10:19:43;;;;;;;;;;;9.50;99.90;;;;;;5030682;28;19987;-83
2021/12/13 10:22:09;;;;;;;;;;;9.60;99.90;;;;;;5032432;28;19913;-84
2021/12/13 10:24:39;;;;;;;;;;;9.60;99.90;;;;;;5030764;28;19917;-84
2021/12/13 10:27:06;;;;;;;;;;;9.50;99.90;;;;;;5032348;28;19920;-84
2021/12/13 10:29:32;;;;;;;;;;;9.60;99.90;;;;;;5029640;28;19910;-83
2021/12/13 10:32:06;;;;;;;;;;;9.60;99.90;;;;;;5032887;28;20487;-83
2021/12/13 10:34:38;;;;;;;;;;;9.60;99.90;;;;;;5031787;28;19920;-84
2021/12/13 10:37:05;;;;;;;;;;;9.70;99.90;;;;;;5042498;28;20288;-84
2021/12/13 10:39:35;;;;;;;;;;;9.70;99.90;;;;;;5047336;28;19924;-83
2021/12/13 10:42:05;;;;;;;;;;;9.70;99.90;;;;;;5031906;28;19925;-83
2021/12/13 10:44:31;;;;;;;;;;;9.70;99.90;;;;;;5032467;28;19928;-84
2021/12/13 10:47:05;;;;;;;;;;;9.70;99.90;;;;;;5031535;28;19917;-85
2021/12/13 10:49:32;;;;;;;;;;;9.70;99.90;;;;;;5003987;28;20226;-84
2021/12/13 10:52:07;;;;;;;;;;;9.70;99.90;;;;;;5035160;28;19917;-84
2021/12/13 10:54:44;;;;;;;;;;;9.70;99.90;;;;;;5028412;28;20336;-84
2021/12/13 10:57:20;;;;;;;;;;;9.70;99.90;;;;;;5028151;28;20339;-83
2021/12/13 10:59:48;;;;;;;;;;;9.80;99.90;;;;;;5043534;28;19914;-83
2021/12/13 11:02:19;;;;;;;;;;;9.80;99.90;;;;;;5027532;28;20292;-84
2021/12/13 11:04:53;;;;;;;;;;;9.80;99.90;;;;;;5029325;28;20002;-83
2021/12/13 11:07:19;;;;;;;;;;;9.80;99.90;;;;;;5040557;28;19925;-83
2021/12/13 11:09:46;;;;;;;;;;;9.80;99.90;;;;;;5046109;28;19913;-85
2021/12/13 11:12:14;;;;;;;;;;;9.80;99.90;;;;;;5027023;28;19917;-84
2021/12/13 11:14:42;;;;;;;;;;;9.80;99.90;;;;;;5045084;28;19917;-83
2021/12/13 11:17:10;;;;;;;;;;;9.90;99.90;;;;;;5029008;28;19964;-84
2021/12/13 11:19:37;;;;;;;;;;;9.90;99.90;;;;;;5044851;28;19913;-83
2021/12/13 11:22:04;;;;;;;;;;;9.90;99.90;;;;;;5046383;28;19999;-84
2021/12/13 11:24:33;;;;;;;;;;;9.90;99.90;;;;;;5030255;28;19924;-83
2021/12/13 11:27:01;;;;;;;;;;;9.90;99.90;;;;;;5027118;28;19925;-85
2021/12/13 11:29:28;;;;;;;;;;;10.00;99.90;;;;;;5029007;28;19917;-84
2021/12/13 11:31:55;;;;;;;;;;;10.00;99.90;;;;;;5029822;28;19928;-84
2021/12/13 11:34:39;;;;;;;;;;;10.00;99.90;;;;;;5038176;28;19921;-84
2021/12/13 11:37:11;;;;;;;;;;;10.00;99.90;;;;;;5027232;28;19921;-84
2021/12/13 11:39:44;;;;;;;;;;;10.00;99.90;;;;;;5027097;28;21334;-84
2021/12/13 11:42:33;;;;;;;;;;;10.10;99.90;;;;;;5030017;28;19975;-85
2021/12/13 11:45:25;;;;;;;;;;;10.10;99.90;;;;;;5019227;28;19918;-83
2021/12/13 11:48:15;;;;;;;;;;;10.10;99.90;;;;;;5025508;28;20367;-84
2021/12/13 11:51:00;;;;;;;;;;;10.10;99.90;;;;;;5017371;28;19921;-83
2021/12/13 11:53:41;;;;;;;;;;;10.10;99.90;;;;;;5021785;28;19921;-84
2021/12/13 11:56:29;;;;;;;;;;;10.20;99.90;;;;;;5026064;28;19924;-83
2021/12/13 11:59:08;;;;;;;;;;;10.10;99.90;;;;;;5011362;28;19921;-84
2021/12/13 12:01:53;;;;;;;;;;;10.10;99.90;;;;;;5027857;28;19917;-83
2021/12/13 12:04:37;;;;;;;;;;;10.10;99.90;;;;;;5029422;28;19917;-84
2021/12/13 12:07:14;;;;;;;;;;;10.10;99.90;;;;;;5028756;28;19943;-84
2021/12/13 12:09:59;;;;;;;;;;;10.10;99.90;;;;;;5032633;28;19921;-82
2021/12/13 12:12:24;;;;;;;;;;;10.10;99.90;;;;;;5048346;28;19917;-84
2021/12/13 12:14:59;;;;;;;;;;;10.00;99.90;;;;;;5031088;28;20312;-84
2021/12/13 12:17:25;;;;;;;;;;;10.00;99.90;;;;;;5032071;28;19921;-85
2021/12/13 12:19:51;;;;;;;;;;;10.00;99.90;;;;;;5043393;28;19922;-83
2021/12/13 12:22:17;;;;;;;;;;;10.00;99.90;;;;;;5029704;28;20304;-83
2021/12/13 12:24:44;;;;;;;;;;;10.10;99.90;;;;;;5029201;28;19923;-84
2021/12/13 12:27:15;;;;;;;;;;;10.10;99.90;;;;;;5046118;28;19929;-83
2021/12/13 12:29:44;;;;;;;;;;;10.10;99.90;;;;;;5029826;28;20304;-83
2021/12/13 12:32:36;;;;;;;;;;;10.10;99.90;;;;;;5044783;28;19917;-84
2021/12/13 12:35:01;;;;;;;;;;;10.10;99.90;;;;;;5029173;28;20003;-83
2021/12/13 12:37:27;;;;;;;;;;;10.10;99.90;;;;;;5028563;28;20016;-83
2021/12/13 12:40:13;;;;;;;;;;;10.10;99.90;;;;;;5030276;28;19921;-83
2021/12/13 12:42:42;;;;;;;;;;;10.10;99.90;;;;;;4994252;28;20244;-82
2021/12/13 12:45:19;;;;;;;;;;;10.10;99.90;;;;;;5030533;28;19927;-84
2021/12/13 12:47:51;;;;;;;;;;;10.10;99.90;;;;;;5030208;28;19921;-84
2021/12/13 12:50:19;;;;;;;;;;;10.10;99.90;;;;;;5026402;28;19917;-84
2021/12/13 12:52:57;;;;;;;;;;;10.20;99.90;;;;;;5021647;28;20315;-83
2021/12/13 12:55:25;;;;;;;;;;;10.20;99.90;;;;;;5027010;28;19921;-83
2021/12/13 12:57:51;;;;;;;;;;;10.10;99.90;;;;;;5038873;28;19953;-83
2021/12/13 13:00:28;;;;;;;;;;;10.20;99.90;;;;;;5012899;28;20344;-83
2021/12/13 13:02:54;;;;;;;;;;;10.10;99.90;;;;;;5028747;28;19921;-82
2021/12/13 13:05:21;;;;;;;;;;;10.10;99.90;;;;;;5021322;28;19917;-83
2021/12/13 13:07:49;;;;;;;;;;;10.00;99.90;;;;;;5025003;28;20328;-83
2021/12/13 13:12:45;;;;;;;;;;;10.00;99.90;;;;;;5029610;28;20392;-83
2021/12/13 13:15:12;;;;;;;;;;;10.00;99.90;;;;;;5029277;28;20016;-82
2021/12/13 13:17:40;;;;;;;;;;;10.00;99.90;;;;;;5027154;28;20312;-82
2021/12/13 13:20:08;;;;;;;;;;;10.00;99.90;;;;;;5038586;28;19944;-83
2021/12/13 13:22:36;;;;;;;;;;;10.00;99.90;;;;;;5030909;28;19917;-83
2021/12/13 13:25:10;;;;;;;;;;;10.00;99.90;;;;;;5029214;28;20201;-84
2021/12/13 13:27:37;;;;;;;;;;;10.00;99.90;;;;;;5030835;28;19921;-83
2021/12/13 13:30:06;;;;;;;;;;;9.90;99.90;;;;;;5030528;28;19921;-84
2021/12/13 13:32:35;;;;;;;;;;;10.00;99.90;;;;;;5030793;28;19917;-85
2021/12/13 13:35:01;;;;;;;;;;;9.90;99.90;;;;;;5045444;28;19963;-83
2021/12/13 13:37:26;;;;;;;;;;;9.90;99.90;;;;;;5029225;28;19917;-84
2021/12/13 13:39:54;;;;;;;;;;;9.90;99.90;;;;;;5028846;28;19928;-83
2021/12/13 13:42:21;;;;;;;;;;;9.90;99.90;;;;;;5047412;28;19921;-82
2021/12/13 13:44:55;;;;;;;;;;;9.90;99.90;;;;;;5032371;28;19917;-83
2021/12/13 13:47:28;;;;;;;;;;;9.90;99.90;;;;;;5029612;28;19994;-82
2021/12/13 13:49:54;;;;;;;;;;;9.90;99.90;;;;;;5029676;28;19957;-83
2021/12/13 13:52:25;;;;;;;;;;;9.90;99.90;;;;;;5030928;28;19917;-83
2021/12/13 13:54:53;;;;;;;;;;;9.80;99.90;;;;;;5030009;28;19917;-82
2021/12/13 13:57:21;;;;;;;;;;;9.80;99.90;;;;;;5044583;28;20008;-83
2021/12/13 13:59:47;;;;;;;;;;;9.80;99.90;;;;;;5028929;28;19925;-83
2021/12/13 14:02:14;;;;;;;;;;;9.80;99.90;;;;;;5029533;28;19917;-83
2021/12/13 14:04:43;;;;;;;;;;;9.80;99.90;;;;;;5030940;28;20011;-83
2021/12/13 14:07:16;;;;;;;;;;;9.80;99.90;;;;;;5029236;28;19936;-83
2021/12/13 14:09:54;;;;;;;;;;;9.80;99.90;;;;;;5027832;28;19936;-83
2021/12/13 14:12:25;;;;;;;;;;;9.70;99.90;;;;;;5029305;28;19913;-82
2021/12/13 14:14:59;;;;;;;;;;;9.70;99.90;;;;;;5029808;28;19921;-82
2021/12/13 14:17:31;;;;;;;;;;;9.70;99.90;;;;;;5044582;28;19940;-82
2021/12/13 14:20:02;;;;;;;;;;;9.70;99.90;;;;;;5029793;28;19932;-83
2021/12/13 14:22:30;;;;;;;;;;;9.70;99.90;;;;;;5026567;28;19913;-83
2021/12/13 14:24:56;;;;;;;;;;;9.60;99.90;;;;;;5017696;28;21143;-81
2021/12/13 14:27:24;;;;;;;;;;;9.70;99.90;;;;;;5025479;28;20004;-83
2021/12/13 14:29:53;;;;;;;;;;;9.60;99.90;;;;;;5029643;28;20473;-83
2021/12/13 14:32:19;;;;;;;;;;;9.60;99.90;;;;;;5027588;28;20326;-83
2021/12/13 14:34:45;;;;;;;;;;;9.60;99.90;;;;;;5030080;28;19921;-83
2021/12/13 14:37:13;;;;;;;;;;;9.60;99.90;;;;;;5029960;28;19923;-83
2021/12/13 14:39:43;;;;;;;;;;;9.70;99.90;;;;;;5041519;28;19999;-83
2021/12/13 14:42:11;;;;;;;;;;;9.60;99.90;;;;;;5024291;28;19932;-82
2021/12/13 14:44:42;;;;;;;;;;;9.60;99.90;;;;;;5025174;28;19948;-82
2021/12/13 14:47:10;;;;;;;;;;;9.60;99.90;;;;;;5044749;28;19936;-83
2021/12/13 14:49:41;;;;;;;;;;;9.50;99.90;;;;;;5030154;28;19963;-83
2021/12/13 14:52:09;;;;;;;;;;;9.60;99.90;;;;;;5027291;28;20405;-83
2021/12/13 14:54:36;;;;;;;;;;;9.50;99.90;;;;;;5029019;28;19916;-83
2021/12/13 14:57:04;;;;;;;;;;;9.50;99.90;;;;;;5031022;28;19921;-82
2021/12/13 14:59:31;;;;;;;;;;;9.50;99.90;;;;;;5034902;28;19918;-83
2021/12/13 15:01:57;;;;;;;;;;;9.50;99.90;;;;;;5038852;28;19968;-83
2021/12/13 15:04:25;;;;;;;;;;;9.40;99.90;;;;;;5032638;28;20021;-83